Time;durP1;ratioP1;P1;durP2;ratioP2;P2;SDS_P1;SDS_P2;PMS_P1;PMS_P2;Temp;Humidity;BMP_temperature;BMP_pressure;BME280_temperature;BME280_humidity;BME280_pressure;Samples;Min_cycle;Max_cycle;Signal;HPM_P1;HPM_P2
2021/12/31 00:04:52;;;;;;;1.73;0.70;;;17.40;67.60;;;;;;10403185;28;20217;-68
2021/12/31 00:10:15;;;;;;;0.87;0.60;;;17.40;67.60;;;;;;10411579;28;20593;-69
2021/12/31 00:15:38;;;;;;;0.90;0.50;;;17.40;67.60;;;;;;10413073;28;20735;-69
2021/12/31 00:21:00;;;;;;;0.67;0.60;;;17.40;67.60;;;;;;10413716;28;20661;-68
2021/12/31 00:26:22;;;;;;;0.83;0.67;;;17.40;67.60;;;;;;10412362;28;20585;-68
2021/12/31 00:31:46;;;;;;;1.00;0.77;;;17.40;67.60;;;;;;10411712;28;20565;-68
2021/12/31 00:37:08;;;;;;;3.47;0.70;;;17.40;67.60;;;;;;10412169;28;20562;-68
2021/12/31 00:42:30;;;;;;;0.67;0.67;;;17.40;67.60;;;;;;10411941;28;20210;-68
2021/12/31 00:47:54;;;;;;;1.33;0.77;;;17.40;67.60;;;;;;10411268;28;20193;-69
2021/12/31 00:53:16;;;;;;;0.93;0.60;;;17.40;67.60;;;;;;10410320;28;20226;-68
2021/12/31 00:58:38;;;;;;;1.47;0.70;;;17.40;67.60;;;;;;10371130;28;20222;-69
2021/12/31 01:04:01;;;;;;;1.17;0.53;;;17.40;67.60;;;;;;10395399;28;20336;-68
2021/12/31 01:09:23;;;;;;;0.63;0.50;;;17.40;67.60;;;;;;10411561;28;20193;-68
2021/12/31 01:14:55;;;;;;;0.60;0.60;;;17.40;67.60;;;;;;10410387;28;20225;-68
2021/12/31 01:20:20;;;;;;;1.00;0.60;;;17.40;67.60;;;;;;10410475;28;20197;-68
2021/12/31 01:25:42;;;;;;;0.97;0.60;;;17.40;67.60;;;;;;10410113;28;20214;-69
2021/12/31 01:31:04;;;;;;;1.30;0.47;;;17.30;67.50;;;;;;10404859;28;20198;-68
2021/12/31 01:36:28;;;;;;;0.67;0.50;;;17.30;67.40;;;;;;10408799;28;20712;-68
2021/12/31 01:41:50;;;;;;;1.13;0.60;;;17.40;67.50;;;;;;10409926;28;20202;-69
2021/12/31 01:47:16;;;;;;;1.13;0.60;;;17.30;67.40;;;;;;10409870;28;20202;-68
2021/12/31 01:52:40;;;;;;;0.50;0.50;;;17.40;67.60;;;;;;10410026;28;20692;-68
2021/12/31 01:58:04;;;;;;;0.87;0.40;;;17.30;67.50;;;;;;10409390;28;20755;-69
2021/12/31 02:03:26;;;;;;;0.70;0.40;;;17.30;67.50;;;;;;10410255;28;20212;-69
2021/12/31 02:08:50;;;;;;;0.70;0.50;;;17.40;67.60;;;;;;10409680;28;20201;-68
2021/12/31 02:14:12;;;;;;;0.50;0.40;;;17.30;67.50;;;;;;10408356;28;20700;-68
2021/12/31 02:19:34;;;;;;;0.70;0.60;;;17.30;67.50;;;;;;10408944;28;20217;-68
2021/12/31 02:25:01;;;;;;;0.50;0.50;;;17.30;67.40;;;;;;10408990;28;20222;-68
2021/12/31 02:30:23;;;;;;;1.00;0.60;;;17.30;67.40;;;;;;10402450;28;20212;-68
2021/12/31 02:35:45;;;;;;;0.90;0.50;;;17.30;67.40;;;;;;10416841;28;20225;-68
2021/12/31 02:41:09;;;;;;;0.90;0.60;;;17.30;67.40;;;;;;10417822;28;20193;-68
2021/12/31 02:46:31;;;;;;;0.70;0.60;;;17.30;67.40;;;;;;10417352;28;20218;-68
2021/12/31 02:51:59;;;;;;;0.57;0.57;;;17.30;67.40;;;;;;10415696;28;20204;-68
2021/12/31 02:57:23;;;;;;;0.60;0.50;;;17.30;67.50;;;;;;10416391;28;20896;-69
2021/12/31 03:02:45;;;;;;;1.03;0.53;;;17.30;67.40;;;;;;10415001;28;20217;-68
2021/12/31 03:08:09;;;;;;;0.70;0.60;;;17.30;67.50;;;;;;10414947;28;20198;-68
2021/12/31 03:13:34;;;;;;;0.77;0.50;;;17.30;67.50;;;;;;10415943;28;20225;-69
2021/12/31 03:18:57;;;;;;;0.70;0.40;;;17.30;67.40;;;;;;10413360;28;20213;-68
2021/12/31 03:24:19;;;;;;;1.23;0.60;;;17.30;67.40;;;;;;10414644;28;20336;-69
2021/12/31 03:29:43;;;;;;;0.60;0.50;;;17.30;67.40;;;;;;10414411;28;20201;-69
2021/12/31 03:35:05;;;;;;;0.57;0.40;;;17.30;67.40;;;;;;10410682;28;20226;-68
2021/12/31 03:40:27;;;;;;;0.63;0.50;;;17.30;67.40;;;;;;10412672;28;20210;-69
2021/12/31 03:45:52;;;;;;;0.77;0.57;;;17.30;67.40;;;;;;10412397;28;20221;-69
2021/12/31 03:51:15;;;;;;;0.57;0.40;;;17.30;67.50;;;;;;10414667;28;20198;-68
2021/12/31 03:56:37;;;;;;;0.73;0.53;;;17.30;67.40;;;;;;10412411;28;20624;-68
2021/12/31 04:02:00;;;;;;;0.70;0.40;;;17.30;67.40;;;;;;10413823;28;20214;-68
2021/12/31 04:07:22;;;;;;;0.60;0.60;;;17.30;67.40;;;;;;10413547;28;20596;-69
2021/12/31 04:12:44;;;;;;;0.40;0.40;;;17.30;67.40;;;;;;10397260;23;21488;-71
2021/12/31 04:18:08;;;;;;;1.23;0.57;;;17.30;67.50;;;;;;10388117;28;20231;-71
2021/12/31 04:23:33;;;;;;;0.77;0.53;;;17.30;67.40;;;;;;10413383;28;20712;-71
2021/12/31 04:28:55;;;;;;;0.50;0.37;;;17.30;67.40;;;;;;10407791;28;20198;-71
2021/12/31 04:34:19;;;;;;;0.33;0.33;;;17.30;67.30;;;;;;10412518;28;20221;-70
2021/12/31 04:39:41;;;;;;;1.63;0.70;;;17.30;67.30;;;;;;10410675;28;20704;-70
2021/12/31 04:45:04;;;;;;;2.00;0.47;;;17.30;67.40;;;;;;10411819;28;20210;-70
2021/12/31 04:50:28;;;;;;;0.60;0.40;;;17.30;67.40;;;;;;10411568;28;20696;-71
2021/12/31 04:55:50;;;;;;;0.70;0.40;;;17.30;67.40;;;;;;10411593;28;20221;-71
2021/12/31 05:01:12;;;;;;;0.97;0.40;;;17.30;67.40;;;;;;10411228;28;20335;-70
2021/12/31 05:06:37;;;;;;;0.40;0.40;;;17.30;67.30;;;;;;10410701;28;20228;-70
2021/12/31 05:12:00;;;;;;;0.60;0.40;;;17.30;67.40;;;;;;10405090;28;20199;-71
2021/12/31 05:17:22;;;;;;;0.40;0.30;;;17.30;67.30;;;;;;10388882;28;20213;-71
2021/12/31 05:22:45;;;;;;;0.50;0.33;;;17.30;67.40;;;;;;10410694;28;20240;-70
2021/12/31 05:28:07;;;;;;;0.40;0.40;;;17.30;67.30;;;;;;10410371;28;20190;-70
2021/12/31 05:33:30;;;;;;;0.80;0.50;;;17.30;67.30;;;;;;10410780;28;20336;-71
2021/12/31 05:38:54;;;;;;;0.33;0.30;;;17.30;67.30;;;;;;10410660;28;20224;-70
2021/12/31 05:44:16;;;;;;;0.50;0.50;;;17.40;67.30;;;;;;10410702;28;20221;-69
2021/12/31 05:49:38;;;;;;;0.30;0.20;;;17.40;67.30;;;;;;10410167;28;20205;-71
2021/12/31 05:55:01;;;;;;;0.60;0.50;;;17.40;67.30;;;;;;10410655;28;20224;-71
2021/12/31 06:00:24;;;;;;;0.53;0.30;;;17.40;67.30;;;;;;10399993;28;20715;-71
2021/12/31 06:05:47;;;;;;;1.07;0.40;;;17.40;67.30;;;;;;10414414;28;20285;-70
2021/12/31 06:11:10;;;;;;;0.53;0.40;;;17.40;67.30;;;;;;10419706;28;20208;-69
2021/12/31 06:16:36;;;;;;;0.40;0.40;;;17.40;67.30;;;;;;10408015;28;20222;-70
2021/12/31 06:21:59;;;;;;;0.80;0.40;;;17.40;67.30;;;;;;10417314;28;20194;-71
2021/12/31 06:27:22;;;;;;;1.30;0.50;;;17.40;67.40;;;;;;10417290;28;20197;-70
2021/12/31 06:32:44;;;;;;;0.50;0.40;;;17.40;67.30;;;;;;10415771;28;20221;-71
2021/12/31 06:38:07;;;;;;;0.63;0.30;;;17.40;67.30;;;;;;10416387;28;20221;-70
2021/12/31 06:43:30;;;;;;;0.47;0.47;;;17.40;67.30;;;;;;10416511;28;20229;-70
2021/12/31 06:48:52;;;;;;;0.50;0.40;;;17.40;67.30;;;;;;10415727;28;20217;-70
2021/12/31 06:54:14;;;;;;;0.67;0.50;;;17.50;67.40;;;;;;10416870;28;20248;-70
2021/12/31 06:59:38;;;;;;;0.60;0.30;;;17.40;67.40;;;;;;10416688;28;20433;-71
2021/12/31 07:05:00;;;;;;;0.67;0.37;;;17.50;67.40;;;;;;10421936;28;20226;-71
2021/12/31 07:10:22;;;;;;;0.80;0.50;;;17.50;67.40;;;;;;10416878;28;20688;-71
2021/12/31 07:15:48;;;;;;;0.57;0.50;;;17.40;67.30;;;;;;10421699;28;20225;-71
2021/12/31 07:21:10;;;;;;;0.50;0.37;;;17.40;67.30;;;;;;10409909;28;20832;-71
2021/12/31 07:26:32;;;;;;;0.50;0.50;;;17.40;67.40;;;;;;10409239;28;20229;-71
2021/12/31 07:31:56;;;;;;;0.53;0.37;;;17.40;67.40;;;;;;10408504;28;20202;-72
2021/12/31 07:37:18;;;;;;;0.50;0.30;;;17.40;67.60;;;;;;10408569;28;20267;-71
2021/12/31 07:42:40;;;;;;;0.37;0.30;;;17.40;67.50;;;;;;10397571;28;20225;-71
2021/12/31 07:48:05;;;;;;;0.40;0.40;;;17.50;67.50;;;;;;10406903;28;20209;-71
2021/12/31 07:53:27;;;;;;;1.07;0.50;;;17.40;67.50;;;;;;10407021;28;20694;-71
2021/12/31 07:58:49;;;;;;;0.77;0.50;;;17.40;67.50;;;;;;10407427;28;20221;-71
2021/12/31 08:04:12;;;;;;;0.37;0.23;;;17.40;67.60;;;;;;10404883;28;20226;-71
2021/12/31 08:09:34;;;;;;;0.97;0.50;;;17.50;67.60;;;;;;10416772;28;20200;-71
2021/12/31 08:14:57;;;;;;;0.43;0.37;;;17.50;67.60;;;;;;10421294;28;20226;-71
2021/12/31 08:20:21;;;;;;;0.30;0.30;;;17.40;67.60;;;;;;10413055;28;20221;-71
2021/12/31 08:25:43;;;;;;;0.37;0.30;;;17.50;67.70;;;;;;10430512;28;20236;-72
2021/12/31 08:31:05;;;;;;;0.50;0.40;;;17.50;67.70;;;;;;10436278;28;20609;-71
2021/12/31 08:36:29;;;;;;;1.33;0.60;;;17.50;67.70;;;;;;10410155;28;20213;-67
2021/12/31 08:41:51;;;;;;;0.30;0.30;;;17.50;67.70;;;;;;10411141;28;20200;-68
2021/12/31 08:47:13;;;;;;;0.30;0.30;;;17.50;67.60;;;;;;10410905;28;20573;-67
2021/12/31 08:52:36;;;;;;;0.30;0.30;;;17.50;67.60;;;;;;10411645;28;20225;-68
2021/12/31 08:57:58;;;;;;;0.30;0.30;;;17.50;67.60;;;;;;10411883;28;20209;-67
2021/12/31 09:03:20;;;;;;;0.43;0.43;;;17.50;67.60;;;;;;10412358;28;20224;-68
2021/12/31 09:08:44;;;;;;;0.60;0.40;;;17.60;67.60;;;;;;10410768;28;20661;-68
2021/12/31 09:14:06;;;;;;;1.23;0.40;;;17.60;67.60;;;;;;10410676;28;20232;-67
2021/12/31 09:19:28;;;;;;;0.30;0.30;;;17.60;67.60;;;;;;10409504;28;20217;-67
2021/12/31 09:24:52;;;;;;;0.40;0.30;;;17.60;67.60;;;;;;10410768;28;20213;-68
2021/12/31 09:30:14;;;;;;;0.20;0.20;;;17.60;67.60;;;;;;10410397;28;20581;-68
2021/12/31 09:35:36;;;;;;;0.70;0.40;;;17.60;67.60;;;;;;10410533;28;20217;-67
2021/12/31 09:41:00;;;;;;;0.40;0.40;;;17.60;67.60;;;;;;10408385;28;20221;-67
2021/12/31 09:46:22;;;;;;;0.30;0.30;;;17.60;67.50;;;;;;10409481;28;20217;-67
2021/12/31 09:51:45;;;;;;;0.33;0.30;;;17.60;67.60;;;;;;10408611;28;20296;-68
2021/12/31 09:57:13;;;;;;;0.47;0.40;;;17.60;67.50;;;;;;10408885;28;20235;-67
2021/12/31 10:02:35;;;;;;;0.50;0.30;;;17.60;67.50;;;;;;10410645;28;20213;-67
2021/12/31 10:07:57;;;;;;;0.20;0.20;;;17.60;67.60;;;;;;10410179;28;20190;-68
2021/12/31 10:13:24;;;;;;;0.67;0.30;;;17.60;67.50;;;;;;10435533;22;20227;-63
2021/12/31 10:18:47;;;;;;;0.57;0.50;;;17.60;67.50;;;;;;10445448;28;20224;-63
2021/12/31 10:24:34;;;;;;;0.40;0.30;;;17.60;67.50;;;;;;10425358;28;20682;-63
2021/12/31 10:30:00;;;;;;;0.60;0.40;;;17.60;67.40;;;;;;10402931;28;20202;-64
2021/12/31 10:35:23;;;;;;;0.60;0.30;;;17.60;67.50;;;;;;10406641;28;20200;-63
2021/12/31 10:40:46;;;;;;;0.30;0.30;;;17.60;67.50;;;;;;10399975;28;20225;-63
2021/12/31 10:46:11;;;;;;;0.67;0.30;;;17.60;67.50;;;;;;10406790;28;20194;-63
2021/12/31 10:51:38;;;;;;;0.20;0.20;;;17.60;68.10;;;;;;10410763;28;20210;-64
2021/12/31 10:57:01;;;;;;;0.97;0.40;;;17.60;67.50;;;;;;10415436;28;20367;-63
2021/12/31 11:02:24;;;;;;;0.53;0.30;;;17.60;67.50;;;;;;10414028;28;20198;-64
2021/12/31 11:07:48;;;;;;;0.70;0.47;;;17.60;67.50;;;;;;10414386;28;20206;-63
2021/12/31 11:13:13;;;;;;;0.30;0.30;;;17.60;67.50;;;;;;10402752;28;20590;-63
2021/12/31 11:18:37;;;;;;;0.73;0.43;;;17.60;67.50;;;;;;10394103;28;20228;-63
2021/12/31 11:24:30;;;;;;;0.23;0.23;;;17.60;67.50;;;;;;10416244;28;20205;-64
2021/12/31 11:29:53;;;;;;;0.43;0.40;;;17.60;67.40;;;;;;10412808;28;20286;-64
2021/12/31 11:35:34;;;;;;;0.60;0.40;;;17.60;67.70;;;;;;10413200;28;20200;-62
2021/12/31 11:41:03;;;;;;;0.40;0.30;;;17.60;67.60;;;;;;10410928;28;20694;-59
2021/12/31 11:46:34;;;;;;;0.37;0.30;;;17.60;67.70;;;;;;10412126;28;20672;-63
2021/12/31 11:52:00;;;;;;;0.60;0.40;;;17.60;67.80;;;;;;10411248;28;20220;-63
2021/12/31 11:57:30;;;;;;;0.53;0.40;;;17.60;67.90;;;;;;10398299;28;20727;-63
2021/12/31 12:02:52;;;;;;;0.50;0.40;;;17.60;67.90;;;;;;10410263;28;20205;-63
2021/12/31 12:08:28;;;;;;;1.10;0.50;;;17.60;68.00;;;;;;10401907;28;20393;-63
2021/12/31 12:14:28;;;;;;;1.58;0.50;;;17.60;67.80;;;;;;10398064;28;20421;-63
2021/12/31 12:20:18;;;;;;;1.45;0.60;;;17.60;67.40;;;;;;10393393;28;20445;-63
2021/12/31 12:25:42;;;;;;;0.77;0.60;;;18.20;65.60;;;;;;10402333;28;20954;-63
2021/12/31 12:31:16;;;;;;;0.97;0.43;;;18.80;63.70;;;;;;10408127;28;20217;-63
2021/12/31 12:36:40;;;;;;;1.85;0.63;;;18.20;66.40;;;;;;10406504;28;20452;-63
2021/12/31 12:42:06;;;;;;;0.93;0.60;;;18.80;64.00;;;;;;10393300;28;20205;-63
2021/12/31 12:47:28;;;;;;;1.27;0.90;;;18.20;65.80;;;;;;10408196;28;20190;-63
2021/12/31 12:52:54;;;;;;;3.07;1.10;;;18.00;66.60;;;;;;10406708;28;20548;-62
2021/12/31 12:58:24;;;;;;;2.60;1.27;;;17.90;67.00;;;;;;10409424;28;20222;-63
2021/12/31 13:03:51;;;;;;;5.07;1.90;;;17.90;67.10;;;;;;10421391;28;20190;-63
2021/12/31 13:09:15;;;;;;;1.97;1.67;;;17.90;67.30;;;;;;10393390;28;20216;-64
2021/12/31 13:14:39;;;;;;;3.50;1.80;;;17.80;67.40;;;;;;10383825;28;20210;-63
2021/12/31 13:20:07;;;;;;;3.00;1.50;;;17.80;67.40;;;;;;10402318;28;20602;-63
2021/12/31 13:25:44;;;;;;;2.83;1.50;;;17.80;67.40;;;;;;10408389;28;20261;-63
2021/12/31 13:31:09;;;;;;;3.03;1.43;;;17.80;67.30;;;;;;10407633;28;20232;-63
2021/12/31 13:36:31;;;;;;;4.93;1.60;;;17.80;67.50;;;;;;10406826;28;20287;-63
2021/12/31 13:41:56;;;;;;;2.47;1.63;;;17.80;67.50;;;;;;10407069;28;20210;-62
2021/12/31 13:47:21;;;;;;;3.73;1.70;;;17.80;67.50;;;;;;10395305;28;20202;-63
2021/12/31 13:52:47;;;;;;;2.97;1.70;;;17.80;67.50;;;;;;10398846;28;20194;-64
2021/12/31 13:58:10;;;;;;;2.77;1.37;;;17.80;67.40;;;;;;10406468;28;20218;-63
2021/12/31 14:03:33;;;;;;;2.97;1.77;;;17.80;67.40;;;;;;10391700;28;20193;-63
2021/12/31 14:08:55;;;;;;;2.70;1.40;;;17.80;67.50;;;;;;10397274;28;20695;-64
2021/12/31 14:14:18;;;;;;;1.80;1.30;;;17.80;67.50;;;;;;10393938;28;20205;-62
2021/12/31 14:19:41;;;;;;;2.23;1.20;;;17.80;67.60;;;;;;10405718;28;20221;-63
2021/12/31 14:25:05;;;;;;;2.50;1.70;;;17.80;67.60;;;;;;10391666;28;20280;-62
2021/12/31 14:30:30;;;;;;;3.47;1.13;;;17.80;67.60;;;;;;10413691;28;20236;-63
2021/12/31 14:35:53;;;;;;;1.97;1.33;;;17.80;67.70;;;;;;10415679;28;20205;-63
2021/12/31 14:41:22;;;;;;;1.43;1.20;;;17.80;67.80;;;;;;10413568;28;20269;-63
2021/12/31 14:46:44;;;;;;;2.00;1.13;;;17.80;67.80;;;;;;10393880;28;20207;-62
2021/12/31 14:52:08;;;;;;;5.47;1.47;;;17.80;67.90;;;;;;10399570;28;20608;-61
2021/12/31 14:57:30;;;;;;;2.40;1.50;;;17.80;67.80;;;;;;10413537;28;20750;-63
2021/12/31 15:02:53;;;;;;;2.00;1.40;;;17.80;67.80;;;;;;10413878;28;20221;-63
2021/12/31 15:08:16;;;;;;;2.00;1.50;;;17.80;67.80;;;;;;10397098;28;20225;-63
2021/12/31 15:13:38;;;;;;;2.33;1.37;;;17.80;67.80;;;;;;10406251;28;20206;-62
2021/12/31 15:19:01;;;;;;;2.37;1.40;;;17.80;67.80;;;;;;10405884;28;20218;-63
2021/12/31 15:24:25;;;;;;;3.00;1.70;;;17.80;67.90;;;;;;10412976;28;20202;-63
2021/12/31 15:29:48;;;;;;;3.53;1.97;;;17.80;67.90;;;;;;10407724;28;20694;-61
2021/12/31 15:35:11;;;;;;;3.20;2.00;;;17.80;68.00;;;;;;10411654;28;20280;-63
2021/12/31 15:40:35;;;;;;;2.30;1.80;;;17.90;68.10;;;;;;10409256;28;20351;-60
2021/12/31 15:45:57;;;;;;;4.20;2.35;;;17.90;68.10;;;;;;10394528;28;20938;-62
2021/12/31 15:51:19;;;;;;;5.07;2.30;;;18.60;65.70;;;;;;10416482;28;20224;-64
2021/12/31 15:56:43;;;;;;;3.90;2.00;;;18.10;66.90;;;;;;10436500;28;20194;-63
2021/12/31 16:02:06;;;;;;;4.57;2.40;;;18.00;67.50;;;;;;10408383;28;20303;-62
2021/12/31 16:07:28;;;;;;;2.57;1.70;;;17.90;67.70;;;;;;10405174;28;20690;-63
2021/12/31 16:12:52;;;;;;;3.83;1.90;;;17.90;67.80;;;;;;10409780;28;20277;-66
2021/12/31 16:18:14;;;;;;;4.00;2.03;;;17.90;67.90;;;;;;10458628;22;20235;-68
2021/12/31 16:23:36;;;;;;;4.37;2.17;;;17.80;67.90;;;;;;10442414;28;20200;-68
2021/12/31 16:29:00;;;;;;;4.80;2.00;;;17.90;68.00;;;;;;10446681;28;20213;-72
2021/12/31 16:34:22;;;;;;;2.53;1.73;;;17.80;68.00;;;;;;10445656;28;20377;-72
2021/12/31 16:39:44;;;;;;;4.37;2.13;;;17.80;68.00;;;;;;10446682;28;20240;-70
2021/12/31 16:45:09;;;;;;;2.90;1.80;;;17.80;68.00;;;;;;10446104;28;20211;-72
2021/12/31 16:50:32;;;;;;;3.37;2.13;;;17.80;68.00;;;;;;10445507;28;20213;-71
2021/12/31 16:55:55;;;;;;;3.07;2.20;;;17.80;68.00;;;;;;10446037;28;20351;-69
2021/12/31 17:01:18;;;;;;;2.93;1.97;;;17.80;68.00;;;;;;10444486;28;20232;-69
2021/12/31 17:06:40;;;;;;;3.53;2.20;;;17.80;68.00;;;;;;10445099;28;20200;-68
2021/12/31 17:12:03;;;;;;;2.77;2.03;;;17.80;68.10;;;;;;10444297;28;20698;-69
2021/12/31 17:17:26;;;;;;;4.23;2.00;;;17.80;68.10;;;;;;10444192;28;20200;-71
2021/12/31 17:22:48;;;;;;;2.93;2.00;;;17.80;68.10;;;;;;10443887;28;20193;-70
2021/12/31 17:28:10;;;;;;;3.73;1.90;;;17.80;68.10;;;;;;10445824;28;20213;-69
2021/12/31 17:33:34;;;;;;;2.97;1.70;;;17.80;68.20;;;;;;10444867;28;20208;-71
2021/12/31 17:38:56;;;;;;;2.57;1.87;;;17.80;68.10;;;;;;10441634;28;20213;-70
2021/12/31 17:44:18;;;;;;;2.20;1.73;;;17.80;68.20;;;;;;10442110;28;20228;-69
2021/12/31 17:49:44;;;;;;;2.67;1.70;;;17.80;68.20;;;;;;10437048;28;20217;-71
2021/12/31 17:55:07;;;;;;;2.80;1.80;;;17.80;68.10;;;;;;10436905;28;20943;-70
2021/12/31 18:00:30;;;;;;;3.13;1.90;;;17.80;68.20;;;;;;10444504;28;20685;-71
2021/12/31 18:05:53;;;;;;;3.20;1.60;;;17.80;68.10;;;;;;10450530;28;20203;-71
2021/12/31 18:11:15;;;;;;;2.30;1.60;;;17.80;68.10;;;;;;10456666;28;20578;-71
2021/12/31 18:16:38;;;;;;;2.20;1.70;;;17.80;68.10;;;;;;10409066;28;20204;-71
2021/12/31 18:22:01;;;;;;;2.87;1.83;;;17.80;68.70;;;;;;10412548;28;20224;-71
2021/12/31 18:27:24;;;;;;;2.37;1.67;;;17.80;68.10;;;;;;10413271;28;20336;-71
2021/12/31 18:32:46;;;;;;;2.83;1.60;;;17.80;68.20;;;;;;10416551;28;20197;-71
2021/12/31 18:38:10;;;;;;;1.63;1.53;;;17.80;68.20;;;;;;10457546;28;20220;-71
2021/12/31 18:43:32;;;;;;;3.70;1.77;;;17.80;68.20;;;;;;10454950;28;20200;-71
2021/12/31 18:48:56;;;;;;;2.47;1.70;;;17.80;68.20;;;;;;10453634;28;20224;-71
2021/12/31 18:54:20;;;;;;;2.13;1.37;;;17.80;68.20;;;;;;10456543;28;20543;-71
2021/12/31 18:59:42;;;;;;;2.03;1.70;;;17.80;68.20;;;;;;10455926;28;20221;-71
2021/12/31 19:05:07;;;;;;;2.00;1.50;;;17.80;68.20;;;;;;10453518;28;20197;-72
2021/12/31 19:10:30;;;;;;;2.70;1.60;;;17.80;68.20;;;;;;10453438;28;20217;-71
2021/12/31 19:15:52;;;;;;;2.57;1.50;;;17.80;68.20;;;;;;10454696;28;20212;-72
2021/12/31 19:21:15;;;;;;;2.10;1.77;;;17.80;68.20;;;;;;10453481;28;20698;-72
2021/12/31 19:26:38;;;;;;;2.03;1.60;;;17.80;68.20;;;;;;10450711;28;20215;-69
2021/12/31 19:32:00;;;;;;;2.00;1.33;;;17.80;68.20;;;;;;10446027;28;20682;-69
2021/12/31 19:37:23;;;;;;;2.00;1.40;;;17.80;68.20;;;;;;10447132;28;20207;-70
2021/12/31 19:42:46;;;;;;;1.80;1.20;;;17.80;68.10;;;;;;10448136;28;20225;-70
2021/12/31 19:48:10;;;;;;;1.70;1.50;;;17.80;68.10;;;;;;10445709;28;20300;-70
2021/12/31 19:53:32;;;;;;;1.70;1.47;;;17.80;68.10;;;;;;10446754;28;20193;-70
2021/12/31 19:58:56;;;;;;;1.97;1.30;;;17.80;68.10;;;;;;10444246;28;20232;-71
2021/12/31 20:04:18;;;;;;;1.90;1.60;;;17.80;68.20;;;;;;10443290;28;20193;-70
2021/12/31 20:09:40;;;;;;;2.00;1.33;;;17.80;68.20;;;;;;10442672;28;20232;-70
2021/12/31 20:15:04;;;;;;;2.27;1.30;;;17.80;68.20;;;;;;10445069;28;20202;-69
2021/12/31 20:20:27;;;;;;;1.83;1.40;;;17.80;68.20;;;;;;10444348;28;20217;-69
2021/12/31 20:25:49;;;;;;;1.97;1.47;;;17.80;68.20;;;;;;10445720;28;20196;-69
2021/12/31 20:31:12;;;;;;;1.87;1.40;;;17.80;68.20;;;;;;10442920;28;20212;-69
2021/12/31 20:36:35;;;;;;;1.40;1.20;;;17.80;68.20;;;;;;10446094;28;20589;-69
2021/12/31 20:41:58;;;;;;;1.53;1.43;;;17.80;68.20;;;;;;10450522;28;20256;-69
2021/12/31 20:47:21;;;;;;;2.30;1.23;;;17.80;68.20;;;;;;10447068;28;20203;-69
2021/12/31 20:52:43;;;;;;;1.80;1.20;;;17.80;68.20;;;;;;10445387;28;20193;-69
2021/12/31 20:58:06;;;;;;;1.70;1.10;;;17.80;68.20;;;;;;10445477;28;20217;-69
2021/12/31 21:03:29;;;;;;;1.50;1.40;;;17.80;68.20;;;;;;10443861;28;20204;-70
2021/12/31 21:08:52;;;;;;;1.83;1.43;;;17.80;68.20;;;;;;10435986;28;20217;-70
2021/12/31 21:14:14;;;;;;;1.47;1.27;;;17.80;68.20;;;;;;10442688;28;20221;-69
2021/12/31 21:19:38;;;;;;;1.47;1.10;;;17.80;68.20;;;;;;10442741;28;20716;-69
2021/12/31 21:25:00;;;;;;;1.33;1.10;;;17.80;68.20;;;;;;10445358;28;20924;-69
2021/12/31 21:30:24;;;;;;;1.10;1.00;;;17.80;68.20;;;;;;10468214;28;20586;-70
2021/12/31 21:35:48;;;;;;;1.37;1.10;;;17.80;68.80;;;;;;10486779;28;20200;-69
2021/12/31 21:41:11;;;;;;;1.50;1.10;;;17.80;68.20;;;;;;10485206;28;20227;-69
2021/12/31 21:46:33;;;;;;;1.73;1.20;;;17.80;68.20;;;;;;10484847;28;20189;-69
2021/12/31 21:51:56;;;;;;;1.40;1.27;;;17.80;68.30;;;;;;10485411;28;20216;-70
2021/12/31 21:57:18;;;;;;;0.80;0.80;;;17.80;68.30;;;;;;10480564;28;20196;-69
2021/12/31 22:02:41;;;;;;;1.40;1.00;;;17.80;68.30;;;;;;10482871;28;20681;-69
2021/12/31 22:08:05;;;;;;;1.57;1.17;;;17.80;68.40;;;;;;10463650;28;20221;-69
2021/12/31 22:13:30;;;;;;;1.63;1.20;;;17.70;68.40;;;;;;10419992;28;20224;-70
2021/12/31 22:18:52;;;;;;;2.47;1.43;;;17.80;68.40;;;;;;10442229;28;20228;-69
2021/12/31 22:24:15;;;;;;;1.30;1.03;;;17.70;68.40;;;;;;10443555;28;20205;-69
2021/12/31 22:29:38;;;;;;;1.60;1.10;;;17.70;68.40;;;;;;10412689;28;20220;-69
2021/12/31 22:35:00;;;;;;;1.97;1.20;;;17.70;68.40;;;;;;10441992;28;20543;-70
2021/12/31 22:40:24;;;;;;;1.60;1.20;;;17.70;68.40;;;;;;10443020;28;20721;-70
2021/12/31 22:45:46;;;;;;;1.40;1.30;;;17.70;68.40;;;;;;10446059;28;20193;-70
2021/12/31 22:51:08;;;;;;;1.50;1.17;;;17.70;68.40;;;;;;10451505;28;20220;-70
2021/12/31 22:56:32;;;;;;;1.33;1.20;;;17.60;68.40;;;;;;10448875;28;20209;-70
2021/12/31 23:01:54;;;;;;;2.37;1.20;;;17.70;68.40;;;;;;10449444;28;20228;-71
2021/12/31 23:07:16;;;;;;;1.83;1.23;;;17.70;68.40;;;;;;10449859;28;20200;-71
2021/12/31 23:12:40;;;;;;;1.10;1.00;;;17.60;68.30;;;;;;10451016;23;20241;-64
2021/12/31 23:18:02;;;;;;;2.13;1.43;;;17.60;68.30;;;;;;10455490;28;20216;-65
2021/12/31 23:23:24;;;;;;;2.13;1.40;;;17.70;68.40;;;;;;10492323;28;20250;-64
2021/12/31 23:28:47;;;;;;;1.30;1.07;;;17.70;68.40;;;;;;10473770;28;20578;-64
2021/12/31 23:34:10;;;;;;;2.63;1.50;;;17.70;68.40;;;;;;10491374;28;20654;-65
2021/12/31 23:39:34;;;;;;;1.87;1.17;;;17.60;68.40;;;;;;10494665;28;20290;-64
2021/12/31 23:45:01;;;;;;;1.97;1.73;;;17.60;68.40;;;;;;10492974;28;20199;-68
2021/12/31 23:50:23;;;;;;;2.60;1.67;;;17.60;68.40;;;;;;10494590;28;20218;-64
2021/12/31 23:55:45;;;;;;;1.73;1.50;;;17.60;68.40;;;;;;10494708;28;20193;-64
